sensor_id;sensor_type;location;lat;lon;timestamp;temperature;humidity
78455;SHT31;67751;51.986;5.696;2023-08-30T00:01:56;16.2;71.9
78455;SHT31;67751;51.986;5.696;2023-08-30T00:04:26;16.2;71.7
78455;SHT31;67751;51.986;5.696;2023-08-30T00:06:56;16.3;72.0
78455;SHT31;67751;51.986;5.696;2023-08-30T00:09:25;16.3;71.7
78455;SHT31;67751;51.986;5.696;2023-08-30T00:11:55;16.3;71.8
78455;SHT31;67751;51.986;5.696;2023-08-30T00:14:25;16.3;71.0
78455;SHT31;67751;51.986;5.696;2023-08-30T00:16:54;16.3;71.4
78455;SHT31;67751;51.986;5.696;2023-08-30T00:19:24;16.3;71.1
78455;SHT31;67751;51.986;5.696;2023-08-30T00:21:53;16.3;71.2
78455;SHT31;67751;51.986;5.696;2023-08-30T00:24:24;16.3;70.8
78455;SHT31;67751;51.986;5.696;2023-08-30T00:26:54;16.3;70.4
78455;SHT31;67751;51.986;5.696;2023-08-30T00:29:24;16.3;70.6
78455;SHT31;67751;51.986;5.696;2023-08-30T00:31:53;16.3;70.6
78455;SHT31;67751;51.986;5.696;2023-08-30T00:34:23;16.3;70.5
78455;SHT31;67751;51.986;5.696;2023-08-30T00:36:53;16.2;70.2
78455;SHT31;67751;51.986;5.696;2023-08-30T00:39:22;16.2;69.9
78455;SHT31;67751;51.986;5.696;2023-08-30T00:41:54;16.2;69.7
78455;SHT31;67751;51.986;5.696;2023-08-30T00:44:25;16.2;69.8
78455;SHT31;67751;51.986;5.696;2023-08-30T00:46:55;16.1;69.7
78455;SHT31;67751;51.986;5.696;2023-08-30T00:49:25;16.1;69.9
78455;SHT31;67751;51.986;5.696;2023-08-30T00:51:56;16.1;70.1
78455;SHT31;67751;51.986;5.696;2023-08-30T00:54:29;16.0;70.2
78455;SHT31;67751;51.986;5.696;2023-08-30T00:57:00;16.0;70.2
78455;SHT31;67751;51.986;5.696;2023-08-30T00:59:32;16.0;70.5
78455;SHT31;67751;51.986;5.696;2023-08-30T01:02:04;15.9;70.4
78455;SHT31;67751;51.986;5.696;2023-08-30T01:04:34;15.9;70.7
78455;SHT31;67751;51.986;5.696;2023-08-30T01:07:04;15.9;71.1
78455;SHT31;67751;51.986;5.696;2023-08-30T01:09:33;15.9;71.3
78455;SHT31;67751;51.986;5.696;2023-08-30T01:12:09;15.9;71.4
78455;SHT31;67751;51.986;5.696;2023-08-30T01:14:45;15.8;71.1
78455;SHT31;67751;51.986;5.696;2023-08-30T01:17:16;15.8;71.3
78455;SHT31;67751;51.986;5.696;2023-08-30T01:19:53;15.8;70.9
78455;SHT31;67751;51.986;5.696;2023-08-30T01:22:35;15.8;70.6
78455;SHT31;67751;51.986;5.696;2023-08-30T01:25:15;15.8;70.7
78455;SHT31;67751;51.986;5.696;2023-08-30T01:27:48;15.8;70.8
78455;SHT31;67751;51.986;5.696;2023-08-30T01:30:21;15.8;71.2
78455;SHT31;67751;51.986;5.696;2023-08-30T01:32:51;15.8;70.8
78455;SHT31;67751;51.986;5.696;2023-08-30T01:35:25;15.8;71.0
78455;SHT31;67751;51.986;5.696;2023-08-30T01:38:01;15.8;70.9
78455;SHT31;67751;51.986;5.696;2023-08-30T01:40:35;15.8;71.3
78455;SHT31;67751;51.986;5.696;2023-08-30T01:43:07;15.8;71.2
78455;SHT31;67751;51.986;5.696;2023-08-30T01:45:41;15.8;71.4
78455;SHT31;67751;51.986;5.696;2023-08-30T01:48:14;15.8;71.4
78455;SHT31;67751;51.986;5.696;2023-08-30T01:50:45;15.8;71.2
78455;SHT31;67751;51.986;5.696;2023-08-30T01:53:15;15.8;71.1
78455;SHT31;67751;51.986;5.696;2023-08-30T01:55:48;15.8;70.9
78455;SHT31;67751;51.986;5.696;2023-08-30T01:58:18;15.8;71.2
78455;SHT31;67751;51.986;5.696;2023-08-30T02:00:48;15.8;71.5
78455;SHT31;67751;51.986;5.696;2023-08-30T02:03:20;15.8;71.5
78455;SHT31;67751;51.986;5.696;2023-08-30T02:05:56;15.8;71.1
78455;SHT31;67751;51.986;5.696;2023-08-30T02:08:38;15.8;71.2
78455;SHT31;67751;51.986;5.696;2023-08-30T02:11:17;15.8;71.3
78455;SHT31;67751;51.986;5.696;2023-08-30T02:13:50;15.8;71.2
78455;SHT31;67751;51.986;5.696;2023-08-30T02:16:23;15.8;71.0
78455;SHT31;67751;51.986;5.696;2023-08-30T02:18:55;15.8;71.2
78455;SHT31;67751;51.986;5.696;2023-08-30T02:21:24;15.8;71.3
78455;SHT31;67751;51.986;5.696;2023-08-30T02:23:57;15.9;71.8
78455;SHT31;67751;51.986;5.696;2023-08-30T02:26:26;15.9;71.7
78455;SHT31;67751;51.986;5.696;2023-08-30T02:28:56;15.9;71.8
78455;SHT31;67751;51.986;5.696;2023-08-30T02:31:25;15.9;71.9
78455;SHT31;67751;51.986;5.696;2023-08-30T02:33:56;15.9;71.6
78455;SHT31;67751;51.986;5.696;2023-08-30T02:36:26;15.9;71.3
78455;SHT31;67751;51.986;5.696;2023-08-30T02:38:55;15.9;70.9
78455;SHT31;67751;51.986;5.696;2023-08-30T02:41:25;15.9;71.1
78455;SHT31;67751;51.986;5.696;2023-08-30T02:43:54;16.0;70.8
78455;SHT31;67751;51.986;5.696;2023-08-30T02:46:24;16.0;70.9
78455;SHT31;67751;51.986;5.696;2023-08-30T02:48:53;16.0;70.8
78455;SHT31;67751;51.986;5.696;2023-08-30T02:51:24;16.0;70.5
78455;SHT31;67751;51.986;5.696;2023-08-30T02:53:54;16.0;70.4
78455;SHT31;67751;51.986;5.696;2023-08-30T02:56:23;16.0;69.8
78455;SHT31;67751;51.986;5.696;2023-08-30T02:58:55;16.0;70.3
78455;SHT31;67751;51.986;5.696;2023-08-30T03:01:25;16.0;70.5
78455;SHT31;67751;51.986;5.696;2023-08-30T03:03:54;16.0;70.9
78455;SHT31;67751;51.986;5.696;2023-08-30T03:06:24;16.0;70.6
78455;SHT31;67751;51.986;5.696;2023-08-30T03:08:55;16.0;70.6
78455;SHT31;67751;51.986;5.696;2023-08-30T03:11:26;16.0;70.6
78455;SHT31;67751;51.986;5.696;2023-08-30T03:13:56;16.0;70.5
78455;SHT31;67751;51.986;5.696;2023-08-30T03:16:26;16.0;70.6
78455;SHT31;67751;51.986;5.696;2023-08-30T03:18:56;16.0;70.1
78455;SHT31;67751;51.986;5.696;2023-08-30T03:21:26;16.0;70.3
78455;SHT31;67751;51.986;5.696;2023-08-30T03:23:57;16.0;69.8
78455;SHT31;67751;51.986;5.696;2023-08-30T03:26:27;16.0;69.0
78455;SHT31;67751;51.986;5.696;2023-08-30T03:28:58;16.0;69.3
78455;SHT31;67751;51.986;5.696;2023-08-30T03:31:28;16.0;69.8
78455;SHT31;67751;51.986;5.696;2023-08-30T03:33:58;15.9;69.5
78455;SHT31;67751;51.986;5.696;2023-08-30T03:36:28;15.9;68.8
78455;SHT31;67751;51.986;5.696;2023-08-30T03:38:57;15.9;69.3
78455;SHT31;67751;51.986;5.696;2023-08-30T03:41:27;15.9;69.2
78455;SHT31;67751;51.986;5.696;2023-08-30T03:43:56;15.9;68.8
78455;SHT31;67751;51.986;5.696;2023-08-30T03:46:28;15.9;68.9
78455;SHT31;67751;51.986;5.696;2023-08-30T03:48:57;15.9;68.6
78455;SHT31;67751;51.986;5.696;2023-08-30T03:51:27;15.8;68.2
78455;SHT31;67751;51.986;5.696;2023-08-30T03:53:56;15.8;68.3
78455;SHT31;67751;51.986;5.696;2023-08-30T03:56:26;15.8;68.3
78455;SHT31;67751;51.986;5.696;2023-08-30T03:58:56;15.8;68.6
78455;SHT31;67751;51.986;5.696;2023-08-30T04:01:25;15.8;69.2
78455;SHT31;67751;51.986;5.696;2023-08-30T04:03:55;15.8;69.1
78455;SHT31;67751;51.986;5.696;2023-08-30T04:06:24;15.8;68.2
78455;SHT31;67751;51.986;5.696;2023-08-30T04:08:54;15.7;68.5
78455;SHT31;67751;51.986;5.696;2023-08-30T04:11:23;15.7;68.4
78455;SHT31;67751;51.986;5.696;2023-08-30T04:13:53;15.7;68.9
78455;SHT31;67751;51.986;5.696;2023-08-30T04:16:22;15.7;68.0
78455;SHT31;67751;51.986;5.696;2023-08-30T04:18:52;15.7;68.0
78455;SHT31;67751;51.986;5.696;2023-08-30T04:21:24;15.7;68.4
78455;SHT31;67751;51.986;5.696;2023-08-30T04:23:53;15.7;67.9
78455;SHT31;67751;51.986;5.696;2023-08-30T04:26:23;15.6;68.1
78455;SHT31;67751;51.986;5.696;2023-08-30T04:28:52;15.6;68.1
78455;SHT31;67751;51.986;5.696;2023-08-30T04:31:22;15.6;68.0
78455;SHT31;67751;51.986;5.696;2023-08-30T04:33:54;15.6;68.3
78455;SHT31;67751;51.986;5.696;2023-08-30T04:36:24;15.6;68.9
78455;SHT31;67751;51.986;5.696;2023-08-30T04:38:53;15.6;68.4
78455;SHT31;67751;51.986;5.696;2023-08-30T04:41:23;15.5;68.3
78455;SHT31;67751;51.986;5.696;2023-08-30T04:43:54;15.5;68.4
78455;SHT31;67751;51.986;5.696;2023-08-30T04:46:24;15.5;68.1
78455;SHT31;67751;51.986;5.696;2023-08-30T04:48:53;15.5;68.0
78455;SHT31;67751;51.986;5.696;2023-08-30T04:51:23;15.5;68.4
78455;SHT31;67751;51.986;5.696;2023-08-30T04:53:53;15.4;68.7
78455;SHT31;67751;51.986;5.696;2023-08-30T04:56:22;15.4;68.6
78455;SHT31;67751;51.986;5.696;2023-08-30T04:58:52;15.4;68.4
78455;SHT31;67751;51.986;5.696;2023-08-30T05:01:22;15.4;68.6
78455;SHT31;67751;51.986;5.696;2023-08-30T05:03:52;15.4;68.4
78455;SHT31;67751;51.986;5.696;2023-08-30T05:06:21;15.4;68.3
78455;SHT31;67751;51.986;5.696;2023-08-30T05:08:51;15.3;68.1
78455;SHT31;67751;51.986;5.696;2023-08-30T05:11:20;15.3;68.7
78455;SHT31;67751;51.986;5.696;2023-08-30T05:13:50;15.3;68.3
78455;SHT31;67751;51.986;5.696;2023-08-30T05:16:20;15.3;68.5
78455;SHT31;67751;51.986;5.696;2023-08-30T05:18:49;15.3;68.9
78455;SHT31;67751;51.986;5.696;2023-08-30T05:21:19;15.2;69.0
78455;SHT31;67751;51.986;5.696;2023-08-30T05:23:48;15.2;69.4
78455;SHT31;67751;51.986;5.696;2023-08-30T05:26:18;15.2;69.5
78455;SHT31;67751;51.986;5.696;2023-08-30T05:28:48;15.2;70.1
78455;SHT31;67751;51.986;5.696;2023-08-30T05:31:18;15.2;69.7
78455;SHT31;67751;51.986;5.696;2023-08-30T05:33:49;15.2;69.8
78455;SHT31;67751;51.986;5.696;2023-08-30T05:36:19;15.2;70.3
78455;SHT31;67751;51.986;5.696;2023-08-30T05:38:48;15.2;70.0
78455;SHT31;67751;51.986;5.696;2023-08-30T05:41:18;15.2;70.6
78455;SHT31;67751;51.986;5.696;2023-08-30T05:43:48;15.2;70.6
78455;SHT31;67751;51.986;5.696;2023-08-30T05:46:17;15.2;70.8
78455;SHT31;67751;51.986;5.696;2023-08-30T05:48:47;15.2;71.0
78455;SHT31;67751;51.986;5.696;2023-08-30T05:51:17;15.2;71.2
78455;SHT31;67751;51.986;5.696;2023-08-30T05:53:47;15.2;71.5
78455;SHT31;67751;51.986;5.696;2023-08-30T05:56:17;15.2;72.2
78455;SHT31;67751;51.986;5.696;2023-08-30T05:58:46;15.3;72.4
78455;SHT31;67751;51.986;5.696;2023-08-30T06:01:18;15.3;72.7
78455;SHT31;67751;51.986;5.696;2023-08-30T06:03:48;15.3;72.6
78455;SHT31;67751;51.986;5.696;2023-08-30T06:06:18;15.3;73.0
78455;SHT31;67751;51.986;5.696;2023-08-30T06:08:48;15.3;73.0
78455;SHT31;67751;51.986;5.696;2023-08-30T06:11:17;15.4;73.1
78455;SHT31;67751;51.986;5.696;2023-08-30T06:13:47;15.4;73.3
78455;SHT31;67751;51.986;5.696;2023-08-30T06:16:16;15.4;73.1
78455;SHT31;67751;51.986;5.696;2023-08-30T06:18:46;15.5;73.3
78455;SHT31;67751;51.986;5.696;2023-08-30T06:21:16;15.5;73.3
78455;SHT31;67751;51.986;5.696;2023-08-30T06:23:45;15.5;73.1
78455;SHT31;67751;51.986;5.696;2023-08-30T06:26:15;15.6;73.0
78455;SHT31;67751;51.986;5.696;2023-08-30T06:28:45;15.6;73.0
78455;SHT31;67751;51.986;5.696;2023-08-30T06:31:14;15.6;73.4
78455;SHT31;67751;51.986;5.696;2023-08-30T06:33:46;15.7;73.3
78455;SHT31;67751;51.986;5.696;2023-08-30T06:36:16;15.7;73.5
78455;SHT31;67751;51.986;5.696;2023-08-30T06:38:45;15.7;73.7
78455;SHT31;67751;51.986;5.696;2023-08-30T06:41:15;15.7;73.8
78455;SHT31;67751;51.986;5.696;2023-08-30T06:43:45;15.8;73.4
78455;SHT31;67751;51.986;5.696;2023-08-30T06:46:14;15.8;73.7
78455;SHT31;67751;51.986;5.696;2023-08-30T06:48:44;15.8;73.8
78455;SHT31;67751;51.986;5.696;2023-08-30T06:51:14;15.8;74.1
78455;SHT31;67751;51.986;5.696;2023-08-30T06:53:43;15.8;74.0
78455;SHT31;67751;51.986;5.696;2023-08-30T06:56:16;15.9;74.1
78455;SHT31;67751;51.986;5.696;2023-08-30T06:58:46;15.9;74.2
78455;SHT31;67751;51.986;5.696;2023-08-30T07:01:15;15.9;74.6
78455;SHT31;67751;51.986;5.696;2023-08-30T07:03:45;15.9;74.7
78455;SHT31;67751;51.986;5.696;2023-08-30T07:06:14;15.9;74.5
78455;SHT31;67751;51.986;5.696;2023-08-30T07:08:44;15.9;74.7
78455;SHT31;67751;51.986;5.696;2023-08-30T07:11:13;15.9;75.1
78455;SHT31;67751;51.986;5.696;2023-08-30T07:13:45;15.9;75.2
78455;SHT31;67751;51.986;5.696;2023-08-30T07:16:14;15.9;75.2
78455;SHT31;67751;51.986;5.696;2023-08-30T07:18:44;15.9;75.4
78455;SHT31;67751;51.986;5.696;2023-08-30T07:21:14;15.9;75.8
78455;SHT31;67751;51.986;5.696;2023-08-30T07:23:44;15.9;75.9
78455;SHT31;67751;51.986;5.696;2023-08-30T07:26:13;15.9;75.9
78455;SHT31;67751;51.986;5.696;2023-08-30T07:28:43;15.9;75.9
78455;SHT31;67751;51.986;5.696;2023-08-30T07:31:13;15.9;76.4
78455;SHT31;67751;51.986;5.696;2023-08-30T07:33:45;15.9;76.4
78455;SHT31;67751;51.986;5.696;2023-08-30T07:36:15;15.9;76.5
78455;SHT31;67751;51.986;5.696;2023-08-30T07:38:44;15.9;76.6
78455;SHT31;67751;51.986;5.696;2023-08-30T07:41:16;15.9;76.9
78455;SHT31;67751;51.986;5.696;2023-08-30T07:43:45;15.9;77.2
78455;SHT31;67751;51.986;5.696;2023-08-30T07:46:15;15.9;77.3
78455;SHT31;67751;51.986;5.696;2023-08-30T07:48:45;15.9;77.4
78455;SHT31;67751;51.986;5.696;2023-08-30T07:51:14;15.9;77.6
78455;SHT31;67751;51.986;5.696;2023-08-30T07:53:44;15.9;77.6
78455;SHT31;67751;51.986;5.696;2023-08-30T07:56:14;15.9;77.3
78455;SHT31;67751;51.986;5.696;2023-08-30T07:58:43;15.9;77.6
78455;SHT31;67751;51.986;5.696;2023-08-30T08:01:13;15.8;77.7
78455;SHT31;67751;51.986;5.696;2023-08-30T08:03:43;15.8;77.7
78455;SHT31;67751;51.986;5.696;2023-08-30T08:06:13;15.8;77.7
78455;SHT31;67751;51.986;5.696;2023-08-30T08:08:43;15.8;77.8
78455;SHT31;67751;51.986;5.696;2023-08-30T08:11:13;15.8;77.8
78455;SHT31;67751;51.986;5.696;2023-08-30T08:13:43;15.8;77.8
78455;SHT31;67751;51.986;5.696;2023-08-30T08:16:13;15.9;77.7
78455;SHT31;67751;51.986;5.696;2023-08-30T08:18:42;15.9;77.6
78455;SHT31;67751;51.986;5.696;2023-08-30T08:21:12;15.9;77.7
78455;SHT31;67751;51.986;5.696;2023-08-30T08:23:41;15.9;78.0
78455;SHT31;67751;51.986;5.696;2023-08-30T08:26:13;15.9;78.0
78455;SHT31;67751;51.986;5.696;2023-08-30T08:28:43;15.9;78.2
78455;SHT31;67751;51.986;5.696;2023-08-30T08:31:12;15.9;78.3
78455;SHT31;67751;51.986;5.696;2023-08-30T08:33:43;15.9;78.4
78455;SHT31;67751;51.986;5.696;2023-08-30T08:36:13;15.9;78.8
78455;SHT31;67751;51.986;5.696;2023-08-30T08:38:42;15.9;79.0
78455;SHT31;67751;51.986;5.696;2023-08-30T08:41:15;15.9;79.3
78455;SHT31;67751;51.986;5.696;2023-08-30T08:43:45;15.9;79.0
78455;SHT31;67751;51.986;5.696;2023-08-30T08:46:18;15.9;78.8
78455;SHT31;67751;51.986;5.696;2023-08-30T08:48:50;15.9;79.2
78455;SHT31;67751;51.986;5.696;2023-08-30T08:51:21;15.9;79.0
78455;SHT31;67751;51.986;5.696;2023-08-30T08:53:51;16.0;79.3
78455;SHT31;67751;51.986;5.696;2023-08-30T08:56:22;16.0;79.1
78455;SHT31;67751;51.986;5.696;2023-08-30T08:58:52;16.0;79.2
78455;SHT31;67751;51.986;5.696;2023-08-30T09:01:22;16.0;79.0
78455;SHT31;67751;51.986;5.696;2023-08-30T09:03:52;16.0;79.2
78455;SHT31;67751;51.986;5.696;2023-08-30T09:06:22;16.0;79.2
78455;SHT31;67751;51.986;5.696;2023-08-30T09:08:52;16.0;79.1
78455;SHT31;67751;51.986;5.696;2023-08-30T09:11:22;16.0;79.3
78455;SHT31;67751;51.986;5.696;2023-08-30T09:13:51;16.0;79.1
78455;SHT31;67751;51.986;5.696;2023-08-30T09:16:21;16.0;79.6
78455;SHT31;67751;51.986;5.696;2023-08-30T09:18:59;16.0;79.6
78455;SHT31;67751;51.986;5.696;2023-08-30T09:21:29;16.0;79.7
78455;SHT31;67751;51.986;5.696;2023-08-30T09:24:00;16.0;79.8
78455;SHT31;67751;51.986;5.696;2023-08-30T09:26:32;16.0;80.0
78455;SHT31;67751;51.986;5.696;2023-08-30T09:29:03;16.0;80.2
78455;SHT31;67751;51.986;5.696;2023-08-30T09:31:37;16.0;80.4
78455;SHT31;67751;51.986;5.696;2023-08-30T09:34:08;16.0;80.6
78455;SHT31;67751;51.986;5.696;2023-08-30T09:36:40;16.0;80.8
78455;SHT31;67751;51.986;5.696;2023-08-30T09:39:11;16.0;81.0
78455;SHT31;67751;51.986;5.696;2023-08-30T09:41:43;16.0;81.2
78455;SHT31;67751;51.986;5.696;2023-08-30T09:44:14;16.0;81.4
78455;SHT31;67751;51.986;5.696;2023-08-30T09:46:46;16.1;81.5
78455;SHT31;67751;51.986;5.696;2023-08-30T09:49:19;16.1;81.5
78455;SHT31;67751;51.986;5.696;2023-08-30T09:51:51;16.1;81.5
78455;SHT31;67751;51.986;5.696;2023-08-30T09:54:23;16.1;81.7
78455;SHT31;67751;51.986;5.696;2023-08-30T09:56:54;16.1;81.7
78455;SHT31;67751;51.986;5.696;2023-08-30T09:59:25;16.2;81.7
78455;SHT31;67751;51.986;5.696;2023-08-30T10:01:57;16.2;82.2
78455;SHT31;67751;51.986;5.696;2023-08-30T10:04:30;16.2;82.4
78455;SHT31;67751;51.986;5.696;2023-08-30T10:07:04;16.3;82.6
78455;SHT31;67751;51.986;5.696;2023-08-30T10:09:38;16.3;82.6
78455;SHT31;67751;51.986;5.696;2023-08-30T10:12:10;16.3;82.9
78455;SHT31;67751;51.986;5.696;2023-08-30T10:14:40;16.3;83.0
78455;SHT31;67751;51.986;5.696;2023-08-30T10:17:12;16.4;83.2
78455;SHT31;67751;51.986;5.696;2023-08-30T10:19:45;16.4;83.6
78455;SHT31;67751;51.986;5.696;2023-08-30T10:22:17;16.5;83.9
78455;SHT31;67751;51.986;5.696;2023-08-30T10:24:51;16.5;84.0
78455;SHT31;67751;51.986;5.696;2023-08-30T10:27:24;16.5;83.6
78455;SHT31;67751;51.986;5.696;2023-08-30T10:29:55;16.6;83.6
78455;SHT31;67751;51.986;5.696;2023-08-30T10:32:25;16.6;83.6
78455;SHT31;67751;51.986;5.696;2023-08-30T10:34:54;16.7;83.6
78455;SHT31;67751;51.986;5.696;2023-08-30T10:37:26;16.7;83.7
78455;SHT31;67751;51.986;5.696;2023-08-30T10:40:00;16.8;83.8
78455;SHT31;67751;51.986;5.696;2023-08-30T10:42:32;16.8;84.2
78455;SHT31;67751;51.986;5.696;2023-08-30T10:45:04;16.9;84.1
78455;SHT31;67751;51.986;5.696;2023-08-30T10:47:37;16.9;83.8
78455;SHT31;67751;51.986;5.696;2023-08-30T10:50:09;17.0;83.4
78455;SHT31;67751;51.986;5.696;2023-08-30T10:52:39;17.0;83.4
78455;SHT31;67751;51.986;5.696;2023-08-30T10:55:10;17.1;83.6
78455;SHT31;67751;51.986;5.696;2023-08-30T10:57:45;17.1;83.7
78455;SHT31;67751;51.986;5.696;2023-08-30T11:00:21;17.2;83.4
78455;SHT31;67751;51.986;5.696;2023-08-30T11:02:51;17.2;83.1
78455;SHT31;67751;51.986;5.696;2023-08-30T11:05:24;17.2;82.8
78455;SHT31;67751;51.986;5.696;2023-08-30T11:07:54;17.3;82.7
78455;SHT31;67751;51.986;5.696;2023-08-30T11:10:23;17.3;82.6
78455;SHT31;67751;51.986;5.696;2023-08-30T11:12:55;17.3;82.2
78455;SHT31;67751;51.986;5.696;2023-08-30T11:15:26;17.4;82.0
78455;SHT31;67751;51.986;5.696;2023-08-30T11:18:04;17.4;81.5
78455;SHT31;67751;51.986;5.696;2023-08-30T11:20:34;17.4;81.5
78455;SHT31;67751;51.986;5.696;2023-08-30T11:23:05;17.4;81.1
78455;SHT31;67751;51.986;5.696;2023-08-30T11:25:37;17.4;81.2
78455;SHT31;67751;51.986;5.696;2023-08-30T11:28:07;17.5;81.2
78455;SHT31;67751;51.986;5.696;2023-08-30T11:30:41;17.5;81.3
78455;SHT31;67751;51.986;5.696;2023-08-30T11:33:11;17.5;81.2
78455;SHT31;67751;51.986;5.696;2023-08-30T11:35:40;17.5;81.9
78455;SHT31;67751;51.986;5.696;2023-08-30T11:38:10;17.5;81.7
78455;SHT31;67751;51.986;5.696;2023-08-30T11:40:40;17.5;80.4
78455;SHT31;67751;51.986;5.696;2023-08-30T11:43:10;17.5;79.6
78455;SHT31;67751;51.986;5.696;2023-08-30T11:45:40;17.5;80.7
78455;SHT31;67751;51.986;5.696;2023-08-30T11:48:10;17.5;80.4
78455;SHT31;67751;51.986;5.696;2023-08-30T11:50:40;17.6;80.5
78455;SHT31;67751;51.986;5.696;2023-08-30T11:53:11;17.6;79.0
78455;SHT31;67751;51.986;5.696;2023-08-30T11:55:41;17.6;79.7
78455;SHT31;67751;51.986;5.696;2023-08-30T11:58:11;17.6;80.0
78455;SHT31;67751;51.986;5.696;2023-08-30T12:00:42;17.6;77.7
78455;SHT31;67751;51.986;5.696;2023-08-30T12:03:15;17.6;79.2
78455;SHT31;67751;51.986;5.696;2023-08-30T12:05:49;17.6;78.7
78455;SHT31;67751;51.986;5.696;2023-08-30T12:08:20;17.6;78.6
78455;SHT31;67751;51.986;5.696;2023-08-30T12:10:50;17.5;78.3
78455;SHT31;67751;51.986;5.696;2023-08-30T12:13:24;17.5;76.3
78455;SHT31;67751;51.986;5.696;2023-08-30T12:15:55;17.5;78.1
78455;SHT31;67751;51.986;5.696;2023-08-30T12:18:26;17.5;79.3
78455;SHT31;67751;51.986;5.696;2023-08-30T12:20:58;17.5;79.4
78455;SHT31;67751;51.986;5.696;2023-08-30T12:23:30;17.5;79.2
78455;SHT31;67751;51.986;5.696;2023-08-30T12:26:02;17.5;79.1
78455;SHT31;67751;51.986;5.696;2023-08-30T12:28:34;17.5;79.6
78455;SHT31;67751;51.986;5.696;2023-08-30T12:31:05;17.5;79.0
78455;SHT31;67751;51.986;5.696;2023-08-30T12:33:37;17.5;78.7
78455;SHT31;67751;51.986;5.696;2023-08-30T12:36:08;17.5;75.8
78455;SHT31;67751;51.986;5.696;2023-08-30T12:38:37;17.5;78.6
78455;SHT31;67751;51.986;5.696;2023-08-30T12:41:07;17.6;78.5
78455;SHT31;67751;51.986;5.696;2023-08-30T12:43:37;17.6;78.9
78455;SHT31;67751;51.986;5.696;2023-08-30T12:46:09;17.6;79.2
78455;SHT31;67751;51.986;5.696;2023-08-30T12:48:38;17.6;79.2
78455;SHT31;67751;51.986;5.696;2023-08-30T12:51:10;17.6;79.3
78455;SHT31;67751;51.986;5.696;2023-08-30T12:53:41;17.6;77.6
78455;SHT31;67751;51.986;5.696;2023-08-30T12:56:10;17.6;77.8
78455;SHT31;67751;51.986;5.696;2023-08-30T12:58:40;17.7;78.5
78455;SHT31;67751;51.986;5.696;2023-08-30T13:01:10;17.7;75.0
78455;SHT31;67751;51.986;5.696;2023-08-30T13:03:39;17.7;75.7
78455;SHT31;67751;51.986;5.696;2023-08-30T13:06:09;17.7;77.1
78455;SHT31;67751;51.986;5.696;2023-08-30T13:08:39;17.7;73.6
78455;SHT31;67751;51.986;5.696;2023-08-30T13:11:08;17.8;78.2
78455;SHT31;67751;51.986;5.696;2023-08-30T13:13:38;17.8;79.1
78455;SHT31;67751;51.986;5.696;2023-08-30T13:16:07;17.8;78.9
78455;SHT31;67751;51.986;5.696;2023-08-30T13:18:37;17.9;78.3
78455;SHT31;67751;51.986;5.696;2023-08-30T13:21:07;17.9;77.7
78455;SHT31;67751;51.986;5.696;2023-08-30T13:23:36;18.0;76.6
78455;SHT31;67751;51.986;5.696;2023-08-30T13:26:06;18.0;77.2
78455;SHT31;67751;51.986;5.696;2023-08-30T13:28:37;18.0;75.2
78455;SHT31;67751;51.986;5.696;2023-08-30T13:31:08;18.0;73.5
78455;SHT31;67751;51.986;5.696;2023-08-30T13:33:38;18.0;73.6
78455;SHT31;67751;51.986;5.696;2023-08-30T13:36:08;18.0;73.3
78455;SHT31;67751;51.986;5.696;2023-08-30T13:38:37;18.0;74.1
78455;SHT31;67751;51.986;5.696;2023-08-30T13:41:07;18.0;73.2
78455;SHT31;67751;51.986;5.696;2023-08-30T13:43:37;18.0;74.4
78455;SHT31;67751;51.986;5.696;2023-08-30T13:46:06;18.1;70.4
78455;SHT31;67751;51.986;5.696;2023-08-30T13:48:36;18.1;66.3
78455;SHT31;67751;51.986;5.696;2023-08-30T13:51:05;18.1;72.8
78455;SHT31;67751;51.986;5.696;2023-08-30T13:53:35;18.1;72.2
78455;SHT31;67751;51.986;5.696;2023-08-30T13:56:05;18.1;66.3
78455;SHT31;67751;51.986;5.696;2023-08-30T13:58:34;18.1;71.6
78455;SHT31;67751;51.986;5.696;2023-08-30T14:01:04;18.1;72.1
78455;SHT31;67751;51.986;5.696;2023-08-30T14:03:34;18.1;66.5
78455;SHT31;67751;51.986;5.696;2023-08-30T14:06:03;18.1;70.8
78455;SHT31;67751;51.986;5.696;2023-08-30T14:08:33;18.1;69.8
78455;SHT31;67751;51.986;5.696;2023-08-30T14:11:03;18.1;70.1
78455;SHT31;67751;51.986;5.696;2023-08-30T14:13:33;18.1;67.6
78455;SHT31;67751;51.986;5.696;2023-08-30T14:16:03;18.1;69.4
78455;SHT31;67751;51.986;5.696;2023-08-30T14:18:33;18.2;71.2
78455;SHT31;67751;51.986;5.696;2023-08-30T14:21:02;18.2;71.3
78455;SHT31;67751;51.986;5.696;2023-08-30T14:23:32;18.2;70.3
78455;SHT31;67751;51.986;5.696;2023-08-30T14:26:04;18.2;70.7
78455;SHT31;67751;51.986;5.696;2023-08-30T14:28:37;18.2;72.7
78455;SHT31;67751;51.986;5.696;2023-08-30T14:31:09;18.2;69.7
78455;SHT31;67751;51.986;5.696;2023-08-30T14:33:42;18.3;67.3
78455;SHT31;67751;51.986;5.696;2023-08-30T14:36:13;18.3;65.3
78455;SHT31;67751;51.986;5.696;2023-08-30T14:38:44;18.3;66.4
78455;SHT31;67751;51.986;5.696;2023-08-30T14:41:13;18.4;63.4
78455;SHT31;67751;51.986;5.696;2023-08-30T14:43:44;18.4;67.4
78455;SHT31;67751;51.986;5.696;2023-08-30T14:46:14;18.4;66.6
78455;SHT31;67751;51.986;5.696;2023-08-30T14:48:45;18.4;67.2
78455;SHT31;67751;51.986;5.696;2023-08-30T14:51:15;18.4;67.1
78455;SHT31;67751;51.986;5.696;2023-08-30T14:53:47;18.4;65.0
78455;SHT31;67751;51.986;5.696;2023-08-30T14:56:16;18.4;67.9
78455;SHT31;67751;51.986;5.696;2023-08-30T14:58:46;18.4;67.8
78455;SHT31;67751;51.986;5.696;2023-08-30T15:01:18;18.4;65.4
78455;SHT31;67751;51.986;5.696;2023-08-30T15:03:48;18.4;67.6
78455;SHT31;67751;51.986;5.696;2023-08-30T15:06:18;18.5;65.0
78455;SHT31;67751;51.986;5.696;2023-08-30T15:08:48;18.5;64.4
78455;SHT31;67751;51.986;5.696;2023-08-30T15:11:18;18.4;62.2
78455;SHT31;67751;51.986;5.696;2023-08-30T15:13:47;18.4;63.3
78455;SHT31;67751;51.986;5.696;2023-08-30T15:16:17;18.4;64.4
78455;SHT31;67751;51.986;5.696;2023-08-30T15:18:48;18.3;63.2
78455;SHT31;67751;51.986;5.696;2023-08-30T15:21:18;18.3;64.1
78455;SHT31;67751;51.986;5.696;2023-08-30T15:23:47;18.3;63.5
78455;SHT31;67751;51.986;5.696;2023-08-30T15:26:17;18.2;64.7
78455;SHT31;67751;51.986;5.696;2023-08-30T15:28:48;18.2;66.6
78455;SHT31;67751;51.986;5.696;2023-08-30T15:31:18;18.2;63.8
78455;SHT31;67751;51.986;5.696;2023-08-30T15:33:50;18.1;66.1
78455;SHT31;67751;51.986;5.696;2023-08-30T15:36:19;18.1;65.6
78455;SHT31;67751;51.986;5.696;2023-08-30T15:38:49;18.1;66.7
78455;SHT31;67751;51.986;5.696;2023-08-30T15:41:19;18.0;66.6
78455;SHT31;67751;51.986;5.696;2023-08-30T15:43:49;18.0;68.8
78455;SHT31;67751;51.986;5.696;2023-08-30T15:46:19;18.0;67.2
78455;SHT31;67751;51.986;5.696;2023-08-30T15:48:50;18.0;69.4
78455;SHT31;67751;51.986;5.696;2023-08-30T15:51:21;17.9;69.7
78455;SHT31;67751;51.986;5.696;2023-08-30T15:53:51;17.9;70.6
78455;SHT31;67751;51.986;5.696;2023-08-30T15:56:22;17.9;72.3
78455;SHT31;67751;51.986;5.696;2023-08-30T15:58:52;17.9;73.3
78455;SHT31;67751;51.986;5.696;2023-08-30T16:01:22;17.9;72.7
78455;SHT31;67751;51.986;5.696;2023-08-30T16:03:52;17.9;72.6
78455;SHT31;67751;51.986;5.696;2023-08-30T16:06:22;17.9;74.0
78455;SHT31;67751;51.986;5.696;2023-08-30T16:08:53;17.8;72.0
78455;SHT31;67751;51.986;5.696;2023-08-30T16:11:23;17.8;73.7
78455;SHT31;67751;51.986;5.696;2023-08-30T16:13:53;17.8;74.5
78455;SHT31;67751;51.986;5.696;2023-08-30T16:16:22;17.8;74.8
78455;SHT31;67751;51.986;5.696;2023-08-30T16:18:52;17.8;74.7
78455;SHT31;67751;51.986;5.696;2023-08-30T16:21:21;17.8;71.4
78455;SHT31;67751;51.986;5.696;2023-08-30T16:23:51;17.8;72.9